メインページ
METAR-TAF:

METAR-TAF

空港 :

ゴールドコースト空港

クーランガッタ, オーストラリア

緯度: 28-10S, 経度: 153-30E, 海抜: 6m

現時点の気象観測

当レポートは12分前の17:00(UTC)に作成
西/南西の風 6kt
気温 14°C
湿度 77%
気圧 1024 hPa
視程10km以上
高度6800ftの曇り

METAR: YBCG 221700Z AUTO 25006KT 9999 // OVC068 14/10 Q1024

時間: 03:12 (17:12 UTC)

予報

当レポートは6時間4分前の11:08(UTC)に作成
予報は22日の 12時(UTC)から 23日の 12時(UTC)まで有効
南/南西の風 7kt
視程10km以上
高度3000ftの雲はほとんどない
高度4500ftの雲は散在している
弱いにわか雨
22日の 1800時(UTC)から
南/南西の風 6kt
視程10km以上
高度4000ftの雲はほとんどない
23日の 0100時(UTC)から
南/南東の風 10kt
視程10km以上
高度4000ftの雲はほとんどない

TAF: YBCG 221108Z 2212/2312 21007KT 9999 -SHRA FEW030 SCT045 FM221800 20006KT 9999 FEW040 FM230100 16010KT 9999 FEW040

4,000以上の空港の気象観測と天気予報(METAR報とTAF報)

利用可能な観測所は地図上に黄色い丸と赤い丸で示す。

丸の上にカーソルを重ねると観測所名を参照できる。

次にクリックすると気象観測と天気予報を参照できる。

マップの切り替え:黒色「×」印の緑ボタンをクリックして拡大、「-」印の緑ボタンをクリックして縮小、緑色の三角印をクリックして隣りの地図に切り替え


METAR-TAF: